Maratona di San Valentino - km 42,195

Terni - 15/2/2015

 

vedi mezza maratona

 

Risultati a cura di DreamRunners Perugia

 

 

Ordine d'arrivo maschile - km 42,195
Pos Atleta Squadra Sesso ANNO Cat. Tempo RealTime Media P.Cat.
1 BUCCILLI CARMINE ATL. CASONE NOCETO M 1982 SM 2.18.51 2.18.51 3.17 0
2 HAJJY MOHAMED ATL. CASTENASO CELTIC DRUID M 1979 SM35 2.19.58 2.19.58 3.19 0
3 ZITOUNI YOUNESS POD. IL LAGHETTO M 1979 SM35 2.20.31 2.20.31 3.20 0
4 TYAR ABDELAHADI RUNNERS VALSERIANA M 1980 SM35 2.21.34 2.21.34 3.21 1
5 PETREI ANTONELLO RUNNERS AVEZZANO M 1972 SM40 2.35.17 2.35.17 3.41 1
6 CICCOTELLI CLAUDIO ACSI CAMPIDOGLIO PALATINO M 1987 SM 2.36.19 2.36.19 3.42 1
7 BOFFO MARCO G.S. VALSUGANA TRENTINO M 1975 SM40 2.37.03 2.37.03 3.43 2
8 GALIZZI ALESSANDRO ATL. ISOLA D'ELBA M 1971 SM40 2.40.52 2.40.52 3.49 3
9 VOLZONE FABIO G.S. A. MONTI TR M 1967 SM45 2.42.43 2.42.43 3.51 1
10 SOUFYANE EL FADIL RUNNERS TEAM COLLEFERRO M 1979 SM35 2.42.56 2.42.56 3.52 2
11 CARBONI CRISTIAN NEVER STOP RUN M 1981 SM 2.44.20 2.44.20 3.54 2
12 FERREIRA MANUEL MONT DE MARSAN M 1969 SM45 2.46.11 2.46.10 3.56 2
13 QUATTRINI RICCARDO COLLEMAR-ATHON CLUB M 1974 SM40 2.46.48 2.46.15 3.57 4
14 MAGGI STEFANO AMATORI POD. TERNI M 1968 SM45 2.46.56 2.46.55 3.57 3
15 DE CAVE MASSIMO ROCCAGORGA M 1975 SM40 2.47.27 2.47.24 3.58 5
16 RAGAZZINI MASSIMO AVIS FORLI' M 1982 SM 2.48.34 2.48.34 4.00 3
17 FEDERICI MANOLO DINAMIS FALCONARA M 1971 SM40 2.48.56 2.48.53 4.00 6
18 LOMBARDI MARCO ATL. LIBERTAS RUNNERS LIVORNO M 1981 SM 2.49.22 2.49.22 4.01 4
19 BELLINI ROBERTO ESERCITO CE.SEL.NA FOLIGNO M 1971 SM40 2.49.48 2.49.47 4.02 7
20 IACOMELLI FRANCESCO TRISPORT COSTA D'ARGENTO M 1984 SM 2.50.39 2.50.34 4.03 5
21 ROMAGNANO CARLO RICCIONE PODISMO M 1966 SM45 2.50.47 2.50.07 4.03 4
22 D'INNOCENTI MARCO G.M.S. SUBIACO M 1975 SM40 2.51.32 2.51.32 4.04 8
23 CARBONELLI LUCA TRIBU' FRENTANA M 1980 SM35 2.54.01 2.54.00 4.07 3
24 GIORGETTI CLAUDIO AMATORI POD. TERNI M 1960 SM55 2.58.06 2.58.06 4.13 1
25 PAOLELLI GIANPAOLO MODELLI CERAMICI RUNNING M 1968 SM45 2.58.11 2.57.36 4.13 5
26 ARGENTIERO PIETRO TEAM FRANCAVILLA M 1965 SM50 2.58.13 2.57.38 4.13 1
27 TAZZA GIORGIO AMATORI POD. TERNI M 1961 SM50 2.58.14 2.58.13 4.13 2
28 D'EMIDIO MASSIMO SABINA MARATHON CLUB M 1971 SM40 2.58.35 2.58.35 4.14 9
29 DONATELLI ANTONIO POD. SAN SALVO M 1972 SM40 2.59.07 2.59.06 4.15 10
30 CAZZORLA PIERPAOLO SEI SPORT M 1974 SM40 3.00.21 3.00.13 4.17 11
31 VACCA MAURIZIO MARATHON CLUB TRENTO M 1971 SM40 3.00.41 3.00.37 4.17 12
32 ZUCCHINI MATTEO ATL. WINNER FOLIGNO M 1987 SM 3.01.23 3.01.10 4.18 6
33 VERDE PAOLO ARCA ATLETICA M 1967 SM45 3.01.39 3.01.21 4.18 6
34 DI PAOLO MAURIZIO US ACLI MARATHON CHIETI M 1972 SM40 3.03.01 3.02.59 4.20 13
35 RODRIGUEZ ANIBAL RUBEN POD. APRILIA M 1967 SM45 3.03.01 3.02.39 4.20 7
36 PENTANGELO MARIO RUNNERS CIAMPINO M 1949 SM65 3.03.31 3.03.31 4.21 1
37 APICELLA MARIO OFFIDA ATLETICA M 1973 SM40 3.04.14 3.04.14 4.22 14
38 CRITI DAVIDE POD. SAN SALVO M 1970 SM45 3.04.42 3.04.39 4.23 8
39 SERVA MANUEL AMATORI POD. TERNI M 1982 SM 3.05.42 3.05.19 4.24 7
40 AMICO FABIO APERDIFIATO M 1979 SM35 3.06.08 3.05.38 4.25 4
41 PUGLIESE VINCENZO ATHLETIC TEAM PALAGIANO M 1974 SM40 3.06.39 3.06.38 4.25 15
42 MAGGIOLA ENRICO POD. FIAMMA TRIESTE M 1984 SM 3.06.51 3.06.45 4.26 8
43 INTRONA ATTILIO ATL. TOMMASO ASSI - TRANI M 1962 SM50 3.07.21 3.07.18 4.26 3
44 SFONDALMONDO MASSIMILIANO ATL. AVIS PERUGIA M 1971 SM40 3.07.27 3.07.16 4.27 16
45 FRANCESCHETTI DANIELE U.P.R. MONTEMARCIANO M 1983 SM 3.08.05 3.07.47 4.27 9
46 SUSTA FEDERICO APERDIFIATO M 1977 SM35 3.08.45 3.08.13 4.28 5
47 PRUDENZI GIORGIO BOLSENA FORUM SPORT M 1973 SM40 3.08.59 3.07.54 4.29 17
48 CAROSI ARCANGELI EGIDIO AMATORI POD. TERNI M 1970 SM45 3.09.05 3.08.59 4.29 9
49 MASTRANGELO GIANFRANCO NADIR ON THE ROAD PUTIGNANO M 1980 SM35 3.09.16 3.09.00 4.29 6
50 BIANCHI DANILO S.S. LAZIO ATL. LEGGERA M 1970 SM45 3.10.01 3.09.58 4.30 10
51 VALLE AUGUSTO UISP CIVITAVECCHIA M 1964 SM50 3.10.07 3.09.32 4.30 4
52 PASUCH MAURO CITTADUCALE RUNNER'S CLUB M 1966 SM45 3.10.26 3.10.13 4.31 11
53 COLABUCCI SERGIO COLLEFERRO ATLETICA M 1972 SM40 3.10.46 3.09.46 4.31 18
54 D'ALESSANDRO NICOLA ROAD RUNNERS CLUB MILANO M 1967 SM45 3.11.03 3.11.01 4.32 12
55 DE FAZIO RICCARDO UISP ROMA M 1964 SM50 3.11.14 3.11.06 4.32 5
56 PIERDOMENICO STEFANO POD. SOLIDARIETA' M 1970 SM45 3.11.21 3.11.09 4.32 13
57 PAGANELLI ANDREA G.S. LAMONE RUSSI M 1967 SM45 3.11.29 3.11.11 4.32 14
58 BRUGNOLI ALESSANDRO TRAIL ROMAGNA M 1980 SM35 3.12.07 3.12.03 4.33 7
59 PALMITESSA STEFANO POL. PORTO 85 M 1982 SM 3.12.15 3.11.47 4.33 10
60 INFORTUGNO MARCO POD. OSPEDALIERI PISA M 1977 SM35 3.12.20 3.11.42 4.34 8
61 SANDULLO ARSENIO TRAIL DEI DUE LAGHI M 1973 SM40 3.12.21 3.12.13 4.34 19
62 FUBELLI STEFANO POD. SOLIDARIETA' M 1959 SM55 3.12.42 3.12.10 4.34 2
63 CORDA GIANLUCA POD. SOLIDARIETA' M 1974 SM40 3.13.02 3.12.49 4.35 20
64 BARONE ANTONIO ROMATLETICA FOOTWORKS M 1980 SM35 3.13.11 3.13.08 4.35 9
65 FRANCESCHETTI MICHELE U.P.R. MONTEMARCIANO M 1975 SM40 3.13.28 3.13.10 4.35 21
66 FILERI GIOVANNI FORUM SPORT CENTER M 1963 SM50 3.14.02 3.14.01 4.36 6
67 TODINI ANDREA FREE RUNNERS LARIANO M 1982 SM 3.14.03 3.13.20 4.36 11
68 CONTI ROBERTO RUNNERS SANGEMINI TR M 1967 SM45 3.14.10 3.14.04 4.36 15
69 MELIS MASSIMILIANO POD. AVIS DERUTA M 1974 SM40 3.14.17 3.13.48 4.36 22
70 NOCENTE COSIMO TEAM FRANCAVILLA M 1969 SM45 3.14.23 3.14.23 4.36 16
71 PETRARCA RAFFAELE ARCA ATLETICA M 1974 SM40 3.14.27 3.14.27 4.37 23
72 DEROBERTIS GIOVANNI AMATORI POD. PUTIGNANO M 1968 SM45 3.14.38 3.14.28 4.37 17
73 MASTRODICASA MARCELLO M.C. MANOPPELLO SOGEDA M 1967 SM45 3.14.38 3.14.26 4.37 18
74 LUSI DENIS RUNNERS AVEZZANO M 1968 SM45 3.14.39 3.14.33 4.37 19
75 CAPODACQUA GIAMPIETRO PLUS ULTRA TRASACCO M 1965 SM50 3.14.39 3.14.33 4.37 7
76 KOWALSKI GRZEGORZ PMCG PIASECZNO M 1967 SM45 3.14.52 3.14.46 4.37 20
77 BONFIGLIO MARCO VERDE PISELLO GROUP MI M 1977 SM35 3.15.22 3.14.03 4.38 10
78 CHIARELLA CLAUDIO GIUSEPPE NADIR ON THE ROAD PUTIGNANO M 1984 SM 3.15.42 3.15.27 4.38 12
79 RENZI ALESSANDRO ATL. SENIGALLIA M 1983 SM 3.16.06 3.15.49 4.39 13
80 CAMPANELLI ANTONIO PLUS ULTRA TRASACCO M 1965 SM50 3.16.12 3.15.32 4.39 8
81 CALVANICO VINCENZO HAPPY RUNNER CLUB M 1970 SM45 3.16.22 3.16.00 4.39 21
82 PETITJEAN GREGORY BEAULIEU ENDURANCE M 1982 SM 3.16.25 3.16.17 4.39 14
83 PROIETTI MAURIZIO RUNNERS SANGEMINI TR M 1971 SM40 3.16.27 3.16.21 4.39 24
84 KARFJELL EIVIND AMATORI POD. TERNI M 1970 SM45 3.16.28 3.16.22 4.39 22
85 SCATTU GIAN FRANCO G.P. AVIS SPINETOLI PAGLIARE M 1956 SM55 3.16.31 3.15.52 4.39 3
86 MANCANELLI ANDREA G.S. BANCARI ROMANI M 1967 SM45 3.16.37 3.16.20 4.40 23
87 TONI OMAR COLLEMAR-ATHON CLUB M 1965 SM50 3.17.09 3.16.59 4.40 9
88 LUCCI ALESSANDRO AMATORI POD. TERNI M 1970 SM45 3.18.01 3.17.55 4.42 24
89 ANDREOTTI ENRICO RUNFOREVER APRILIA M 1973 SM40 3.18.11 3.17.34 4.42 25
90 PUERINI ALBERTO CINGOLANI TRIATHLON M 1967 SM45 3.18.34 3.18.21 4.42 25
91 BIGI LUCIANO CLUB SUPER MARATHON M 1955 SM60 3.18.45 3.17.43 4.43 1
92 FERLIC JANEZ MARATHON SLOVENIJA M 1981 SM 3.18.51 3.18.48 4.43 15
93 TOMASSINI ANDREA AMATORI POD. TERNI M 1970 SM45 3.19.02 3.18.31 4.43 26
94 SCALZO ANTONIO G.S. BELLAVISTA M 1971 SM40 3.19.27 3.18.52 4.44 26
95 BELARDINI GIANLUCA ATL. AMATORI VELLETRI M 1971 SM40 3.19.36 3.19.30 4.44 27
96 DI DEO VALERIO RUNNERS PESCARA M 1973 SM40 3.19.37 3.18.45 4.44 28
97 LA CAPRIA FRANCESCO ORTICA TEAM MILANO M 1967 SM45 3.19.48 3.19.41 4.44 27
98 LANDI LUCA COLLEMAR-ATHON CLUB M 1979 SM35 3.19.50 3.19.40 4.44 11
99 CURSI DORANDO POD. VALMISA M 1959 SM55 3.19.53 3.19.39 4.44 4
100 LOMBARDI FRANCESCO POD. TARAS M 1964 SM50 3.19.59 3.19.43 4.44 10
101 CESARINI GIORGIO POL. MONTALTO M 1978 SM35 3.20.01 3.19.51 4.44 12
102 FRANCO RODRIGO ALEJANDRO PUROSANGUE ATHLETICS CLUB M 1980 SM35 3.21.11 3.20.45 4.46 13
103 PETRARCA VINCENZO POD. SOLETUM M 1970 SM45 3.21.13 3.20.49 4.46 28
104 D'ERRICO MICHELE POL. MARSALA DOC M 1954 SM60 3.21.31 3.21.05 4.47 2
105 DURSI STEFANO NADIR ON THE ROAD PUTIGNANO M 1975 SM40 3.21.33 3.21.17 4.47 29
106 PULCINI GABRIELE G.P. AVIS SPINETOLI PAGLIARE M 1969 SM45 3.21.49 3.21.09 4.47 29
107 DI SPIRITO CARMINE AMATORI FIAT CASSINO M 1980 SM35 3.22.05 3.21.46 4.47 14
108 VEGLIO' LUCIO COLLEMAR-ATHON CLUB M 1956 SM55 3.22.13 3.22.03 4.48 5
109 MARI ROBERTO MARATHON CLUB C. DI CASTELLO M 1979 SM35 3.22.16 3.21.46 4.48 15
110 MIGLIORUCCI LUCA MARATHON CLUB C. DI CASTELLO M 1968 SM45 3.22.19 3.22.17 4.48 30
111 ROSSI DAVIDE ATL. SENIGALLIA M 1964 SM50 3.22.23 3.22.01 4.48 11
112 SCOTTI MARCO OTC COMO M 1974 SM40 3.22.27 3.21.58 4.48 30
113 GASPARI GIUSTINO POD. SAN SALVO M 1968 SM45 3.22.47 3.22.25 4.48 31
114 INTINI GIANFRANCO NADIR ON THE ROAD PUTIGNANO M 1967 SM45 3.22.54 3.22.14 4.49 32
115 DI LAUDO ANTONIO POD. SAN SALVO M 1961 SM50 3.23.15 3.23.06 4.49 12
116 BOTTI PASQUALE POD. POMEZIA M 1970 SM45 3.23.38 3.22.44 4.50 33
117 PERILLO SALVATORE RUNNING TELESE TERME M 1975 SM40 3.23.42 3.23.18 4.50 31
118 VOLPI STEFANO APERDIFIATO M 1966 SM45 3.23.45 3.23.14 4.50 34
119 FILONZI GIANCARLO ATL. AMAT. AVIS CASTELFIDARDO M 1960 SM55 3.23.53 3.23.40 4.50 6
120 NARDINI MARCO FORHANS TEAM M 1963 SM50 3.24.00 3.23.58 4.50 13
121 AUGELLI ETTORE RINCORRO M 1962 SM50 3.24.08 3.23.37 4.50 14
122 BALDASSARRE ANTONIO NUOVA POD. LATINA M 1967 SM45 3.24.35 3.24.02 4.51 35
123 ROMOLI MARCO A.S.P.A. BASTIA U. PG M 1977 SM35 3.24.44 3.24.08 4.51 16
124 MERCURI MARCO S.S. LAZIO ATL. LEGGERA M 1963 SM50 3.24.55 3.24.37 4.51 15
125 PIERI GIACOMO PISAMARATHON STRAPAZZATA CLUB M 1973 SM40 3.24.56 3.24.16 4.51 32
126 KUEPPER LUKAS DEUTSCHER LEICHTATHLETIK M 1965 SM50 3.25.05 3.24.55 4.52 16
127 DALENA DOMENICO AMATORI POD. PUTIGNANO M 1967 SM45 3.25.26 3.24.47 4.52 36
128 BALDINI GIOVANNI ECOMARATONA DEI MONTI CIMINI M 1964 SM50 3.25.28 3.24.52 4.52 17
129 ALBORINO ANTONIO POD. FRATTESE M 1976 SM35 3.25.33 3.24.56 4.52 17
130 DI SOMMA GIOVANNI POD. FRATTESE M 1969 SM45 3.25.33 3.24.56 4.52 37
131 TIRELLI GIUSEPPE POD. SOLIDARIETA' M 1969 SM45 3.25.42 3.25.29 4.53 38
132 CARFAGNA FRANCESCO POD. SOLIDARIETA' M 1978 SM35 3.25.42 3.25.29 4.53 18
133 LUCIDI RICCARDO TERNI TRIATHLON M 1974 SM40 3.26.07 3.25.17 4.53 33
134 GAROFALO ANDREA ATL. WINNER FOLIGNO M 1964 SM50 3.26.22 3.25.41 4.53 18
135 PIANESI GIUSEPPE NUOVA POD. LORETO M 1962 SM50 3.26.36 3.26.15 4.54 19
136 DARESTA GIUSEPPE NADIR ON THE ROAD PUTIGNANO M 1962 SM50 3.27.27 3.26.48 4.55 20
137 BANI FEDERICO G.P. RICCARDO VALENTI RAPOLANO M 1973 SM40 3.27.28 3.26.55 4.55 34
138 CIOCCHETTI MASSIMO G.S. BANCARI ROMANI M 1986 SM 3.27.28 3.27.21 4.55 16
139 NICCOLI GIOVANNI POL. MONTALTO M 1970 SM45 3.27.31 3.27.02 4.55 39
140 CARACCIOLI MIMMO TOSCANA ATL. EMPOLI M 1965 SM50 3.27.42 3.27.24 4.55 21
141 HAMON OLIVER ASPTT TOULOUSE M 1963 SM50 3.27.44 3.27.41 4.55 22
142 BORDYCH JACEK 100 MARATHON CLUB M 1969 SM45 3.27.53 3.27.12 4.56 40
143 TESSITORE GAETANO POD. SOLIDARIETA' M 1962 SM50 3.27.54 3.27.16 4.56 23
144 DIOGUARDI VALERIO NATURALMENTE CASTELNUOVO M 1964 SM50 3.28.09 3.27.57 4.56 24
145 DEBENEDICTIS MICHELE GRAVINA FESTINA LENTE! M 1963 SM50 3.28.17 3.27.59 4.56 25
146 GAMMIERI ETTORE RUNNING TEAM D'LU MONT M 1968 SM45 3.28.26 3.27.39 4.56 41
147 D'ARIA MICHELE G.P. AVIS SPINETOLI PAGLIARE M 1963 SM50 3.28.33 3.27.53 4.57 26
148 BRUNORI GIUSEPPE ASSISI RUNNERS M 1979 SM35 3.28.36 3.28.25 4.57 19
149 BEGHI ANDREA G.P. GORGONZOLA '88 M 1974 SM40 3.28.40 3.27.52 4.57 35
150 GIOGLI MORENO POD. MYRICAE TERNI M 1958 SM55 3.28.42 3.27.33 4.57 7
151 LUZI LUIGI POD. MYRICAE TERNI M 1951 SM60 3.28.42 3.27.33 4.57 3
152 MORICI MARCO TIVOLI MARATHON M 1967 SM45 3.28.43 3.27.23 4.57 42
153 TARDIO GIUSEPPE TEAM FRANCAVILLA M 1971 SM40 3.28.44 3.28.44 4.57 36
154 DANZI GIULIO AMATORI POTENZA M 1953 SM60 3.28.54 3.28.19 4.57 4
155 COLETTA MARIANO FREE RUNNERS LARIANO M 1973 SM40 3.29.04 3.28.21 4.57 37
156 DENTAMARO VINCENZO UISP ROMA M 1973 SM40 3.29.13 3.28.09 4.58 38
157 PUGLIESE GIULIO ATL. PRATO M 1964 SM50 3.29.26 3.29.09 4.58 27
158 BONAVENTURA GIUSEPPE G.T.A. CREMA M 1959 SM55 3.29.27 3.29.10 4.58 8
159 TOMASSINI ROBERTO AMATORI POD. TERNI M 1974 SM40 3.29.44 3.29.14 4.58 39
160 NANNINI ROBERTO AMATORI POD. TERNI M 1974 SM40 3.29.53 3.29.23 4.58 40
161 FOTI MARCELLO CANOTTIERI LAZIO M 1957 SM55 3.29.54 3.29.24 4.59 9
162 TIRELLI FRANCO NUOVA POD. LATINA M 1965 SM50 3.29.58 3.29.25 4.59 28
163 BIZZARRI GIUSEPPE PUROSANGUE ATHLETICS CLUB M 1958 SM55 3.29.58 3.29.47 4.59 10
164 PETRUCCI MASSIMO PUROSANGUE ATHLETICS CLUB M 1959 SM55 3.29.59 3.29.49 4.59 11
165 MAIETTO MASSIMO POL. MONTALTO M 1959 SM55 3.30.01 3.29.51 4.59 12
166 MASTRANGELO GIANFRANCO POD. SAN SALVO M 1966 SM45 3.30.07 3.29.24 4.59 43
167 D'ALOISIO MAURIZIO POD. SAN SALVO M 1965 SM50 3.30.07 3.29.25 4.59 29
168 CUCORO SALVATORE POD. SAN SALVO M 1971 SM40 3.30.32 3.29.50 4.59 41
169 TORELLI GIOVANNI BATTISTA ROMA ROAD RUNNERS CLUB M 1955 SM60 3.31.16 3.30.24 5.00 5
170 GROSS RICHARD HAPPY RUNNER CLUB M 1967 SM45 3.31.22 3.31.08 5.01 44
171 TALLARITA ANTONIO POD. BIASOLA M 1960 SM55 3.31.32 3.31.02 5.01 13
172 MENEGUZZO GRAZIANO RUN FOR FUN M 1968 SM45 3.31.47 3.31.39 5.01 45
173 ROBERTI MARCO RINCORRO M 1973 SM40 3.33.15 3.32.43 5.03 42
174 DONNINI ALBERTO PUROSANGUE ATHLETICS CLUB M 1951 SM60 3.33.29 3.32.51 5.04 6
175 GIACOMETTI ALDO COLLEMAR-ATHON CLUB M 1960 SM55 3.33.30 3.32.52 5.04 14
176 CARLETTI ENRICO TIVOLI MARATHON M 1968 SM45 3.33.46 3.32.27 5.04 46
177 METELLI GIAN LUCA ATL. VILLA DE SANCTIS M 1965 SM50 3.34.14 3.34.06 5.05 30
178 PAGANO VINCENZO ARCA ATLETICA M 1978 SM35 3.34.26 3.34.14 5.05 20
179 DI CEGLIE GIUSEPPE NADIR ON THE ROAD PUTIGNANO M 1986 SM 3.34.55 3.34.00 5.06 17
180 FABBRI OMAR EASY RUNNER M 1976 SM35 3.35.07 3.34.49 5.06 21
181 DE SANTIS DANIELE TRAIL DEI DUE LAGHI M 1977 SM35 3.35.13 3.34.09 5.06 22
182 LAMIA FRANCESCO TRAIL DEI DUE LAGHI M 1965 SM50 3.35.14 3.34.11 5.06 31
183 MANDOLINI STEFANO G.P. AVIS CASTELRAIMONDO M 1959 SM55 3.35.39 3.35.06 5.07 15
184 DELI RAFFAELE POD. MYRICAE TERNI M 1969 SM45 3.35.46 3.34.09 5.07 47
185 GAZZILLO ANDREA NUOVA POD. LATINA M 1972 SM40 3.36.17 3.35.47 5.08 43
186 VECCHIA LUCA ASTRA ROMA M 1974 SM40 3.36.45 3.36.23 5.08 44
187 SANTIFICETUR FILIPPO ASSISI RUNNERS M 1983 SM 3.36.50 3.36.31 5.08 18
188 TAVELLA ALESSANDRO POD. SOLIDARIETA' M 1966 SM45 3.37.01 3.36.43 5.09 48
189 NINI GIUSEPPE I CINGHIALI M 1967 SM45 3.37.01 3.36.04 5.09 49
190 CONTADINI DANIELE G.S. LAMONE RUSSI M 1962 SM50 3.37.09 3.37.03 5.09 32
191 MARSONER ENRICO POD. SOLIDARIETA' M 1962 SM50 3.37.41 3.37.21 5.10 33
192 BERTINI PAOLO ATL. VINCI FIRENZE M 1965 SM50 3.37.45 3.37.12 5.10 34
193 ROSSI ALESSANDRO POD. CARSULAE TR M 1974 SM40 3.37.51 3.37.30 5.10 45
194 GAGGIA DAMIANO UISP TERNI M 1970 SM45 3.37.51 3.37.03 5.10 50
195 MARTINELLI MARCO SACEN CORRIDONIA M 1969 SM45 3.38.20 3.38.01 5.11 51
196 MACCARI PIETRO SIENARUNNERS M 1972 SM40 3.38.28 3.37.53 5.11 46
197 SARTINI LUCA AMATORI POD. TERNI M 1963 SM50 3.38.31 3.38.24 5.11 35
198 MARIANI ARNALDO POD. SAN SALVO M 1959 SM55 3.38.37 3.38.28 5.11 16
199 MASSARO ANGELO BERGAMO STARS ATLETICA M 1963 SM50 3.39.28 3.38.53 5.12 36
200 CORINALDESI MARCO AMATORI POD. TERNI M 1976 SM35 3.39.31 3.39.03 5.12 23
201 DI LISA DOMENICO POD. SAN SALVO M 1968 SM45 3.39.34 3.39.20 5.12 52
202 BISOGNO MASSIMILIANO CENTRO FITNESS MONTELLO M 1974 SM40 3.39.48 3.39.38 5.13 47
203 CRISOSTOMI GIORGIO AVIS TERNI M 1971 SM40 3.39.56 3.39.16 5.13 48
204 QUATTRUCCI MARCO G.S. FILIPPIDE C. D. LAGO M 1963 SM50 3.40.03 3.39.45 5.13 37
205 GIAMMANCO MICHELE ATHLETIC TEAM PALAGIANO M 1948 SM65 3.40.09 3.40.09 5.13 2
206 ROMANO ROBERTO ATL. PEGASO M 1962 SM50 3.40.46 3.40.00 5.14 38
207 SALIMBENE GIORGIO ATL. FIRENZE MARATHON M 1955 SM60 3.41.06 3.40.44 5.14 7
208 PRANDI PIERPAOLO LA PRIMULA BIANCA M 1971 SM40 3.41.24 3.41.03 5.15 49
209 MASCIOTTI VANIO AMATORI POD. TERNI M 1972 SM40 3.41.33 3.41.04 5.15 50
210 DE LUCA RAPONE VINCENZO A.S.D. ENEA M 1962 SM50 3.41.45 3.41.24 5.15 39
211 PETRONE GIUSEPPE MARIA ASTRA ROMA M 1971 SM40 3.41.52 3.41.30 5.16 51
212 STOLICNY MARTIN SLOVAKIA M 1969 SM45 3.41.54 3.41.32 5.16 53
213 GAL GIDEON GAL BAEMEQ M 1963 SM50 3.41.54 3.40.40 5.16 40
214 PIERANDREA GIOVANNI 3.4 FUN M 1973 SM40 3.42.03 3.41.47 5.16 52
215 MARTINA MARCO CLUB BIKERS M 1968 SM45 3.42.13 3.42.13 5.16 54
216 TOMEI LORENZO G.S. LE PANCHE CASTELQUARTO M 1960 SM55 3.42.15 3.41.58 5.16 17
217 MARTELLUZZI GIAMPIERO ENDURANCE TRAINING M 1966 SM45 3.42.27 3.41.36 5.16 55
218 PUOTI BASILIO ARCA ATLETICA M 1956 SM55 3.42.51 3.42.30 5.17 18
219 GIOIA ISIDORO TEAM FRANCAVILLA M 1967 SM45 3.43.01 3.43.00 5.17 56
220 BURDERI EDOARDO PLUS ULTRA TRASACCO M 1963 SM50 3.43.06 3.41.45 5.17 41
221 BELLI GIUSEPPE A.S.P.A. BASTIA U. PG M 1971 SM40 3.43.11 3.41.56 5.17 53
222 COSTARELLI LEONARDO POD. AVIS DERUTA M 1977 SM35 3.43.24 3.42.53 5.18 24
223 LUPIDI ULDERICO G.S. A. MONTI TR M 1966 SM45 3.43.35 3.43.10 5.18 57
224 FOLLETTI SANDRO POD. CARSULAE TR M 1970 SM45 3.43.39 3.43.03 5.18 58
225 POLAKIS ANTONIS YMCA RUNNERS M 1966 SM45 3.43.40 3.43.18 5.18 59
226 SIMONE MATTEO ATL. LA SBARRA M 1963 SM50 3.43.44 3.43.37 5.18 42
227 BOCCIA MARCO TORRICE RUNNERS M 1977 SM35 3.44.04 3.43.01 5.19 25
228 BOCCIA CRISTIANO TORRICE RUNNERS M 1972 SM40 3.44.04 3.43.01 5.19 54
229 SEVERINO GIOVANNI ASSISI RUNNERS M 1975 SM40 3.44.06 3.43.47 5.19 55
230 PIAMPIANO MORENO ASSISI RUNNERS M 1969 SM45 3.44.06 3.43.48 5.19 60
231 DE LUCIA COSIMO ANDREA RUNFOREVER APRILIA M 1966 SM45 3.44.20 3.43.42 5.19 61
232 PATTARA ANTONELLO RUNNERS PESCARA M 1970 SM45 3.44.25 3.43.32 5.19 62
233 DE CHIGI LUCIO UISP CHIANCIANO M 1967 SM45 3.44.29 3.44.16 5.19 63
234 DI PALMA CIRO ATL. REGGIO M 1969 SM45 3.44.29 3.44.16 5.19 64
235 RASPA PIERO APERDIFIATO M 1960 SM55 3.44.36 3.44.05 5.19 19
236 NEBIOLO ALFREDO ASSISI RUNNERS M 1966 SM45 3.45.00 3.44.41 5.20 65
237 BIGARONI VALERIO ATL. ORTE M 1960 SM55 3.45.11 3.44.53 5.20 20
238 GUERRA ALBERTO TORRE DEL MANGIA SI M 1977 SM35 3.45.13 3.44.22 5.20 26
239 CORTELLA MASSIMO ATL. BANCOLE M 1968 SM45 3.45.26 3.44.47 5.21 66
240 LUCCHETTI DANIELE ATL. TUSCANIA ETRUSCA M 1975 SM40 3.45.36 3.44.54 5.21 56
241 PASCUCCI STEFANO TIVOLI MARATHON M 1963 SM50 3.45.42 3.45.23 5.21 43
242 BARTOLOMEO DINO RUNNERS SAN NICOLO' M 1961 SM50 3.45.44 3.44.49 5.21 44
243 GORGONE SALVATORE G.S. BANCARI ROMANI M 1950 SM65 3.46.04 3.45.39 5.22 3
244 DAL SAVIO GIULIO ATL. PEGASO M 1975 SM40 3.46.14 3.45.29 5.22 57
245 DI BARTOLOMEO GIANLUCA CAT SPORT ROMA M 1972 SM40 3.46.19 3.45.55 5.22 58
246 BELLINI ALESSIO ATL. IL COLLE PERUGIA M 1975 SM40 3.46.23 3.45.49 5.22 59
247 GRILLI ALESSANDRO POD. CARSULAE TR M 1972 SM40 3.46.25 3.45.37 5.22 60
248 FUCILE FABRIZIO AMATORI POD. TERNI M 1969 SM45 3.46.56 3.46.35 5.23 67
249 NAPOLETANO GENNARO CORRICASTROVILLARI M 1969 SM45 3.47.27 3.46.14 5.23 68
250 FIORELLI STEFANO COLLEMAR-ATHON CLUB M 1958 SM55 3.48.01 3.47.52 5.24 21
251 BIANCALANI GIACOMO POD. FATTORI QUARRATA M 1970 SM45 3.48.43 3.48.00 5.25 69
252 ROVATI GIAN CARLO POL. MOLGORA M 1961 SM50 3.49.02 3.48.16 5.26 45
253 MIONI NICOLA RUNNERS TEAM ZANE' M 1973 SM40 3.49.04 3.48.50 5.26 61
254 SEVERONI MAURO CITTADUCALE RUNNER'S CLUB M 1954 SM60 3.49.18 3.48.39 5.26 8
255 PARI EDGARDO EASY RUNNER M 1948 SM65 3.50.11 3.49.37 5.27 4
256 TRUBIANO MAURO RUNNERS PESCARA M 1966 SM45 3.50.47 3.49.56 5.28 70
257 SMETS JOHAN AMATORI POD. TERNI M 1966 SM45 3.50.50 3.49.55 5.28 71
258 DUCHATEAU RENE FED. BELGIUM M 1968 SM45 3.50.50 3.50.24 5.28 72
259 ARSENI NICOLA POL. MONTECCHIO 2000 M 1974 SM40 3.50.53 3.50.21 5.28 62
260 GRASSETTI ANDREA POL. MONTECCHIO 2000 M 1973 SM40 3.50.54 3.50.22 5.28 63
261 LIOTTI GIUSEPPE ANTONIO POD. FRATTESE M 1963 SM50 3.50.58 3.50.23 5.28 46
262 BONANNI ANTONIO PODISTI MARATONA DI ROMA M 1953 SM60 3.51.09 3.50.27 5.29 9
263 SBORO ALFREDO ATL.RIMINI NORD M 1946 SM65 3.51.15 3.50.36 5.29 5
264 MARTINO DOMENICO POD. LUCERA M 1967 SM45 3.51.51 3.51.49 5.30 73
265 LISTA ANTONIO POD. SOLIDARIETA' M 1956 SM55 3.51.57 3.51.07 5.30 22
266 GIROLOMETTI ANTONIO COLLEMAR-ATHON CLUB M 1951 SM60 3.52.05 3.51.55 5.30 10
267 SEVERA TONINO CAT SPORT ROMA M 1963 SM50 3.52.09 3.51.00 5.30 47
268 TIBERI ROBERTO G.S. BANCARI ROMANI M 1973 SM40 3.52.16 3.51.57 5.30 64
269 TORRESI MASSIMO POD. VALTENNA M 1951 SM60 3.52.20 3.51.25 5.30 11
270 BENEDETTI PAOLO A.S.P.A. BASTIA U. PG M 1967 SM45 3.52.23 3.51.42 5.30 74
271 CHIOSTRINI NICOLA POD. VARLUNGO FI M 1961 SM50 3.52.29 3.50.51 5.31 48
272 MORICONI FAUSTINO TORRICE RUNNERS M 1963 SM50 3.52.40 3.51.59 5.31 49
273 RONDINI FABRIZIO ATL. UMBERTIDE M 1964 SM50 3.52.44 3.52.18 5.31 50
274 MONTI MASSIMILIANO G.S. BANCARI ROMANI M 1960 SM55 3.52.46 3.52.16 5.31 23
275 MENCARINI PAOLO POD. AVIS DERUTA M 1964 SM50 3.52.50 3.52.18 5.31 51
276 ASTOLFI ALESSANDRO POD. MYRICAE TERNI M 1973 SM40 3.52.51 3.52.00 5.31 65
277 PROIETTI GAGLIARDONI MIRCO POD. AVIS DERUTA M 1971 SM40 3.52.58 3.52.26 5.31 66
278 RANCADORE RICCARDO RUNNERS CIAMPINO M 1967 SM45 3.53.05 3.52.39 5.31 75
279 ROSCIOLI FABIANO POD. ALSIUM LADISPOLI M 1970 SM45 3.53.14 3.52.17 5.32 76
280 BONI SFORZA ANDREA TRAVERSETOLO RUNNING CLUB M 1971 SM40 3.53.25 3.53.12 5.32 67
281 BAFFONI GIANFRANCO RUNNERS SAN NICOLO' M 1953 SM60 3.53.29 3.52.34 5.32 12
282 CANESTRARI REMO CALCINELLI RUN M 1968 SM45 3.53.30 3.52.46 5.32 77
283 CAPALTI FABRIZIO MARATHON CLUB C. DI CASTELLO M 1965 SM50 3.53.47 3.52.21 5.32 52
284 ACCARINO FRANCESCO ATL. VILLA DE SANCTIS M 1969 SM45 3.53.55 3.53.26 5.33 78
285 ATZORI OMAR POD. VALMISA M 1975 SM40 3.53.58 3.53.47 5.33 68
286 CALABRESE MICHELE BARLETTA SPORTIVA M 1973 SM40 3.54.41 3.53.48 5.34 69
287 SERGIO GIOVANNI ATL. DON MILANI M 1974 SM40 3.55.07 3.54.43 5.34 70
288 BALDASSARRI MICHELE POD. AVIS DERUTA M 1974 SM40 3.55.17 3.54.41 5.35 71
289 KOSTENAROV KONSTANTIN ATL. MDS PANARIAGROUP M 1973 SM40 3.55.46 3.55.22 5.35 72
290 GUARDATI ALBERTO WORLD TRUCK TEAM M 1963 SM50 3.55.52 3.55.37 5.35 53
291 BRESCIA MAURIZIO POD. SOLIDARIETA' M 1972 SM40 3.56.02 3.55.32 5.36 73
292 GUADAGNINO GIUSEPPE NUOVA POD. LATINA M 1969 SM45 3.56.07 3.55.37 5.36 79
293 VALBONESI SANDRO CORRI FORREST M 1978 SM35 3.56.12 3.55.31 5.36 27
294 PASSINI MARCO POD. SOLIDARIETA' M 1961 SM50 3.56.15 3.55.43 5.36 54
295 BORTOLONI FABIO POD. SOLIDARIETA' M 1971 SM40 3.56.22 3.55.59 5.36 74
296 COSSIO LA ROSA PAULO FELIX UISP ROMA M 1967 SM45 3.56.40 3.56.17 5.37 80
297 PACCHIEROTTI LUCA SIENARUNNERS M 1985 SM 3.56.47 3.56.12 5.37 19
298 PRUDENTE GUIDO CAT SPORT ROMA M 1964 SM50 3.57.01 3.56.46 5.37 55
299 CAVALLUCCI MASSIMO POD. SOLIDARIETA' M 1955 SM60 3.57.41 3.56.52 5.38 13
300 DANCIU GABRIEL ALIN RUNNING TELESE TERME M 1988 SM 3.58.04 3.57.34 5.39 20
301 ELSANINO GIANLUCA PUROSANGUE ATHLETICS CLUB M 1968 SM45 3.58.13 3.57.31 5.39 81
302 RALVELLI ETTORE TEAM WARRIORS PISA M 1961 SM50 3.58.24 3.58.01 5.39 56
303 LORENZINI CLAUDIO CLUB SUPER MARATHON M 1955 SM60 3.58.49 3.57.45 5.40 14
304 MARZI MARCO A.S.P.A. BASTIA U. PG M 1979 SM35 3.58.55 3.57.40 5.40 28
305 VENDITTI ERNESTO ROAD RUNNERS CLUB M 1969 SM45 3.58.56 3.58.55 5.40 82
306 STAMPFER HARTMANN CLUB SUPER MARATHON M 1960 SM55 3.59.03 3.58.01 5.40 24
307 MARINO ANTONIO POD. SOLIDARIETA' M 1978 SM35 3.59.06 3.58.47 5.40 29
308 MANCIOCCHI ALBERTO ATL. AMATORI VELLETRI M 1959 SM55 3.59.13 3.57.33 5.40 25
309 BORIOSI MASSIMO ATL. AVIS SANSEPOLCRO M 1975 SM40 3.59.18 3.57.59 5.40 75
310 TESTA MAURIZIO ATL. AURORA SEGNI M 1973 SM40 3.59.41 3.59.07 5.41 76
311 BRODI VERARDO MARATHON CLUB C. DI CASTELLO M 1947 SM65 3.59.42 3.59.02 5.41 6
312 CHIAPPALUPI PAOLO AMATORI POD. TERNI M 1969 SM45 3.59.44 3.59.31 5.41 83
313 FIRMANI MAURO CRAL POLIGRAFICO DELLO STATO M 1957 SM55 3.59.52 3.59.38 5.41 26
314 ADORNETTO GIANLUCA PUROSANGUE ATHLETICS CLUB M 1969 SM45 3.59.52 3.59.40 5.41 84
315 AIUDI LUCA CALCINELLI RUN M 1965 SM50 3.59.53 3.59.41 5.41 57
316 SCALI FRANCESCO TERNI TRIATHLON M 1978 SM35 4.00.06 3.58.42 5.41 30
317 BORDONI ALESSIO TERNI TRIATHLON M 1985 SM 4.00.06 3.58.42 5.41 21
318 COLALONGO PIERLUIGI G.S. ZELOFORAMAGNO M 1972 SM40 4.00.12 3.59.35 5.42 77
319 PEDINI DAMIANO ATL. IL COLLE PERUGIA M 1968 SM45 4.00.39 4.00.04 5.42 85
320 MORI FABIO G.S. GUALDO FI M 1955 SM60 4.01.10 4.00.58 5.43 15
321 MALACARI GIOVANBATTISTA ATL. VILLA DE SANCTIS M 1950 SM65 4.01.26 4.00.58 5.43 7
322 FANELLI LUIGI ATL. TUSCULUM M 1969 SM45 4.01.29 3.59.53 5.43 86
323 GIOVANNETTI PAOLO NUOVA POD. LORETO M 1973 SM40 4.01.35 3.59.59 5.44 78
324 MONZITTU ANDREA POD. SOLIDARIETA' M 1964 SM50 4.02.07 4.01.29 5.44 58
325 FOSSATELLI FABRIZIO AMATORI POD. TERNI M 1969 SM45 4.02.15 4.01.53 5.45 87
326 FERRI LEUCIO RUNNING TELESE TERME M 1967 SM45 4.02.18 4.01.48 5.45 88
327 RICCI FEDERICO TIVOLI MARATHON M 1965 SM50 4.03.30 4.02.18 5.46 59
328 ROMAGGIOLI SANDRO RUNNING CLUB ATL. LARIANO M 1950 SM65 4.03.41 4.02.20 5.47 8
329 NOBILINI LUCA ATL. IL COLLE PERUGIA M 1976 SM35 4.03.47 4.03.11 5.47 31
330 COMUNE SIMONE APERDIFIATO M 1982 SM 4.03.52 4.03.20 5.47 22
331 DI GARBO SANTI APERDIFIATO M 1966 SM45 4.03.53 4.03.24 5.47 89
332 SILIMBANI RUGGERO G.S. LAMONE RUSSI M 1966 SM45 4.03.58 4.03.04 5.47 90
333 CORTINA LUCIANO CLUB SUPER MARATHON M 1965 SM50 4.04.01 4.03.27 5.47 60
334 CERULLO CORRADO APERDIFIATO M 1963 SM50 4.04.04 4.03.29 5.47 61
335 ALIMONTI DANIELE TRA LE RIGHE M 1965 SM50 4.04.14 4.02.31 5.47 62
336 FRAGALE RAFFAELE ROMA TRIATHLON M 1978 SM35 4.04.18 4.03.35 5.47 32
337 GEESON DAVID CALCINELLI RUN M 1966 SM45 4.04.35 4.03.52 5.48 91
338 VIZZINI MASSIMILIANO POL. PRATO NORD M 1971 SM40 4.04.45 4.03.12 5.48 79
339 TEGGI MAURIZIO ACQUADELA BOLOGNA M 1957 SM55 4.05.05 4.04.52 5.49 27
340 MARCOZZI MANRICO HAPPY RUNNER CLUB M 1971 SM40 4.05.15 4.04.39 5.49 80
341 GARDOSE DOMINGO JR CALCATERRA SPORT M 1958 SM55 4.05.24 4.04.44 5.49 28
342 GAMBAIANI MAURO PICO RUNNERS M 1965 SM50 4.05.36 4.04.12 5.49 63
343 GRILLO GIACOMO AMATORI POD. TERNI M 1958 SM55 4.06.16 4.05.42 5.50 29
344 ONORATO GIOVANNI POL. CASA CULTURALE S. MINIATO M 1951 SM60 4.06.21 4.05.35 5.50 16
345 BOTO ENRICO POD. AVIS DERUTA M 1978 SM35 4.06.35 4.06.20 5.51 33
346 MESCHI ANDREA UISP LUCCA M 1967 SM45 4.06.54 4.05.43 5.51 92
347 GUERRIERI GRAZIANO TEAM WARRIORS PISA M 1953 SM60 4.07.00 4.05.35 5.51 17
348 TEDESCO GENNARO ATL. B.R. SERMONETA M 1950 SM65 4.07.20 4.07.02 5.52 9
349 LIPPI FRANCESCO APERDIFIATO M 1980 SM35 4.07.45 4.07.14 5.52 34
350 GIGLIONI STEFANO APERDIFIATO M 1979 SM35 4.07.45 4.07.12 5.52 35
351 VARONE ROBERTO ATL. PEGASO M 1954 SM60 4.08.01 4.07.46 5.53 18
352 BARONE PAOLO ATL. MOLISE AMATORI M 1960 SM55 4.08.46 4.08.27 5.54 30
353 POZZETTI ANDREA AMATORI POD. TERNI M 1971 SM40 4.09.06 4.08.17 5.54 81
354 FASCIANI FABRIZIO ATL. 2000 PESCARA M 1966 SM45 4.09.23 4.08.29 5.55 93
355 CAROZZA ANTONIO ATL. PEGASO M 1965 SM50 4.09.51 4.09.35 5.55 64
356 FERRUCCI FRANCESCO MARATHON CLUB PISA M 1972 SM40 4.09.55 4.09.12 5.55 82
357 SALVATORE ANTONIO POD. AVIS CAMPOBASSO M 1954 SM60 4.10.01 4.09.41 5.56 19
358 MOSTORINO RIVERA WILLIAM ALFREDO CAT SPORT ROMA M 1977 SM35 4.10.04 4.08.57 5.56 36
359 ZAPPONE MARCO LBM SPORT TEAM M 1968 SM45 4.10.06 4.08.34 5.56 94
360 BOTTONI MARCO ATL. AMATORI VELLETRI M 1963 SM50 4.10.46 4.09.59 5.57 65
361 SBIROLI VITO NADIR ON THE ROAD PUTIGNANO M 1969 SM45 4.11.43 4.11.25 5.58 95
362 CICCHELLI CAMILLO M.C. MANOPPELLO SOGEDA M 1971 SM40 4.11.43 4.11.39 5.58 83
363 CIAVARRA LUCA TIVOLI MARATHON M 1984 SM 4.11.44 4.11.24 5.58 23
364 BORIOSI GUALTIERO A.S.P.A. BASTIA U. PG M 1957 SM55 4.12.04 4.11.21 5.58 31
365 CARMIGNANI STEFANO POD. OSPEDALIERI PISA M 1971 SM40 4.12.06 4.11.10 5.59 84
366 FERRARI LUCIANO MARATHON CLUB ALTA QUOTA M 1953 SM60 4.12.12 4.10.50 5.59 20
367 SGARIGLIA MARINO POD. VALTENNA M 1940 SM70 4.12.23 4.11.29 5.59 1
368 LAGAE PHILIPPE AMATORI POD. TERNI M 1965 SM50 4.12.40 4.12.13 5.59 66
369 STAGNARO SERGIO MARATONETI DEL TIGULLIO M 1958 SM55 4.12.46 4.11.54 5.59 32
370 DI MISCIO LUCA PODISTI MARATONA DI ROMA M 1966 SM45 4.12.48 4.11.58 6.00 96
371 SEDIN ANDREI AMATORI POD. TERNI M 1962 SM50 4.13.10 4.11.48 6.00 67
372 CASSARA' LUCIO POD. APRILIA M 1965 SM50 4.13.24 4.12.26 6.00 68
373 DELL'ACCIO VITO ATL. ANZIO M 1965 SM50 4.13.25 4.12.27 6.00 69
374 CIABATTONI GIULIANO A.R.C.U.S. RIMINI M 1963 SM50 4.13.27 4.12.43 6.00 70
375 FEDUZZI ROBERTINO OLIMPIA NUOVA RUNNING M 1965 SM50 4.13.27 4.13.26 6.00 71
376 CURSIO MICHELE I PODISTI DI CAPITANATA M 1975 SM40 4.13.28 4.12.08 6.00 85
377 CONTRO CLAUDIO VICENZA RUNNERS M 1960 SM55 4.13.38 4.12.49 6.01 33
378 VAIDA OVIDIU LAUREN GENZANO MARATHON M 1967 SM45 4.13.46 4.12.25 6.01 97
379 SCARPANTE STEFANO G.S. PASTA GRANAROLO M 1956 SM55 4.14.12 4.12.47 6.02 34
380 MELCHIONDA LUIGI PUROSANGUE ATHLETICS CLUB M 1959 SM55 4.15.05 4.14.50 6.03 35
381 TAVANTI ANTONIO UISP CHIANCIANO M 1965 SM50 4.15.19 4.14.29 6.03 72
382 GONEN YORAM GAL BAEMEQ M 1962 SM50 4.15.37 4.14.21 6.04 73
383 CANAPARI FRANCESCO ATL. AVIS PERUGIA M 1958 SM55 4.16.22 4.15.46 6.05 36
384 CAMNASIO PIERLUIGI AMATORI POD. TERNI M 1955 SM60 4.16.32 4.15.49 6.05 21
385 CALICIOTTI MASSIMO RUNNING CLUB ATL. LARIANO M 1959 SM55 4.17.19 4.15.58 6.06 37
386 PALUZZI SANDRO GENZANO MARATHON M 1957 SM55 4.17.36 4.16.14 6.06 38
387 GIANNI VINCENZO G.S. BANCARI ROMANI M 1952 SM60 4.17.36 4.16.28 6.06 22
388 STABILE ANTONIO CLUB ATLETICO CENTRALE M 1964 SM50 4.17.45 4.17.05 6.07 74
389 BIANCO GIOVANNI AVIS IN CORSA CONVERSANO M 1945 SM70 4.17.49 4.17.08 6.07 2
390 IACOVACCI MARIO ATL. VILLA DE SANCTIS M 1961 SM50 4.18.01 4.17.12 6.07 75
391 D'ONOFRIO DOMENICO RUNNERS PESCARA M 1967 SM45 4.18.08 4.17.15 6.07 98
392 MACCHIONI CLAUDIO ATL. AVIS PERUGIA M 1977 SM35 4.18.56 4.17.37 6.08 37
393 BIANCHI LORENZO G.P. RICCARDO VALENTI RAPOLANO M 1966 SM45 4.19.10 4.18.35 6.09 99
394 TUNDO MARIO DONATO LUIGI G.S. BANCARI ROMANI M 1957 SM55 4.19.37 4.18.29 6.09 39
395 LUTZGABAUER LUTZ AMATORI POD. TERNI M 1956 SM55 4.20.40 4.19.25 6.11 40
396 COSTANZO ORAZIO POD. FRATTESE M 1960 SM55 4.21.10 4.20.34 6.11 41
397 IMOLA PIETRO POL. MONTECCHIO 2000 M 1972 SM40 4.21.14 4.19.31 6.12 86
398 MIGNOGNA GIUSEPPE POD. AVIS CAMPOBASSO M 1951 SM60 4.21.19 4.20.44 6.12 23
399 FABBRI MAURO AMATORI POD. TERNI M 1967 SM45 4.21.20 4.20.45 6.12 100
400 BISACCIONI BRUNO AMATORI POD. TERNI M 1958 SM55 4.21.34 4.20.42 6.12 42
401 BIASCIANO FRANCESCO AMATORI POD. TERNI M 1971 SM40 4.21.42 4.20.54 6.12 87
402 D'ORSO GIUSEPPE POD. FRATTESE M 1971 SM40 4.22.08 4.21.32 6.13 88
403 STEINBERG SHIMON GAL BAEMEQ M 1954 SM60 4.22.11 4.20.56 6.13 24
404 VICIANI EMANUELE G.S. POLSTATO SIENA M 1963 SM50 4.22.12 4.20.56 6.13 76
405 ACETO GIUSEPPE POD. AVIS CAMPOBASSO M 1948 SM65 4.22.22 4.21.48 6.13 10
406 FRIGNANI ENRICO ATL. PEGASO M 1959 SM55 4.22.32 4.21.25 6.13 43
407 TISTARELLI ALBERTO AMATORI VILLA PAMPHILI M 1959 SM55 4.22.32 4.21.26 6.13 44
408 AQUILANI MASSIMO MARATHON CLUB C. DI CASTELLO M 1963 SM50 4.22.38 4.21.13 6.14 77
409 DE ANGELIS LUCIANO UISP LATINA M 1958 SM55 4.23.42 4.22.36 6.15 45
410 ABSI SADIDDIN RUNFOREVER APRILIA M 1966 SM45 4.24.04 4.23.03 6.16 101
411 BARZANTI CARLO POL. U.S. NAVE M 1943 SM70 4.24.59 4.23.58 6.17 3
412 FABBIETTI GIUSEPPE AMATORI POD. TERNI M 1953 SM60 4.26.18 4.26.00 6.19 25
413 DIAMANTI SERGIO POD. MYRICAE TERNI M 1959 SM55 4.26.22 4.24.57 6.19 46
414 AVANCINI GIANMATTEO CAT SPORT ROMA M 1965 SM50 4.27.14 4.26.00 6.20 78
415 VOLPE ANTONIO A.S. PEGASO M 1963 SM50 4.27.18 4.26.53 6.20 79
416 D'ADDESE CARMELO ALBERTO MARATONETI CARPIGIANI M 1957 SM55 4.27.22 4.25.55 6.20 47
417 BEVILACQUA ANDREA POD. LIPPO-CALDERARA M 1967 SM45 4.27.50 4.26.36 6.21 102
418 NEUMANN KLAUS 100 MARATHON CLUB M 1952 SM60 4.28.15 4.27.41 6.21 26
419 RADFORD PAUL VIC RUNNERS CLUB M 1958 SM55 4.28.15 4.27.39 6.21 48
420 COENRAETS GILLES AMATORI POD. TERNI M 1977 SM35 4.28.19 4.27.03 6.22 38
421 LETIZIA FRANCESCO ATL. SAN NICOLA M 1978 SM35 4.28.37 4.27.56 6.22 39
422 CAPECCI FRANCESCO MARATONETI RIUNITI S. BENEDETTO M 1946 SM65 4.28.52 4.27.18 6.22 11
423 PERITO STEFANO ATL. AVIS PERUGIA M 1952 SM60 4.29.06 4.27.39 6.23 27
424 DI MARTINO DINO COLLEMAR-ATHON CLUB M 1965 SM50 4.29.12 4.27.45 6.23 80
425 SHALMON ARIK GAL BAEMEQ M 1957 SM55 4.29.21 4.28.08 6.23 49
426 ROSETTI MARTINO POL. DIL. SANRAFEL M 1966 SM45 4.29.37 4.28.42 6.23 103
427 ADANTI ANDREA CRISPIANO MARATHON CLUB M 1964 SM50 4.29.38 4.28.54 6.23 81
428 SCACCIAFRATTE TONINO AVIS TERNI M 1950 SM65 4.29.42 4.28.16 6.24 12
429 LAMBERTUCCI ULDERICO COLLEMAR-ATHON CLUB M 1945 SM70 4.30.27 4.29.01 6.25 4
430 FRISETTI MARIO NUOVA POD. LATINA M 1965 SM50 4.30.40 4.29.06 6.25 82
431 ROSOLIN ALBERTO STEFANO LBM SPORT TEAM M 1950 SM65 4.31.06 4.29.33 6.26 13
432 CALZOLAI DAVID IL PONTE SCANDICCI M 1969 SM45 4.31.40 4.30.16 6.26 104
433 NISTRI ALESSIO CLUB SUPER MARATHON M 1975 SM40 4.31.41 4.30.18 6.26 89
434 GIRELLI LUCIO MARATHON CLUB C. DI CASTELLO M 1946 SM65 4.32.45 4.31.35 6.28 14
435 TOGNI ENRICO TRAIL DEI DUE LAGHI M 1964 SM50 4.32.58 4.32.42 6.28 83
436 SARGOLINI AMEDEO G.P. MONTI D. TOLFA L'AIRONE M 1965 SM50 4.32.59 4.31.55 6.28 84
437 CHIPI BRUNO ATL. AVIS PERUGIA M 1952 SM60 4.33.24 4.31.57 6.29 28
438 MERLUZZI SIMONE APERDIFIATO M 1978 SM35 4.33.43 4.33.08 6.29 40
439 MENCONI ANTONELLO CDP ATLETICA PERUGIA M 1967 SM45 4.34.38 4.34.21 6.31 105
440 MILLERI GILBERTO G.S. FILIPPIDE C. D. LAGO M 1957 SM55 4.34.44 4.33.54 6.31 50
441 DI COSTANZO GIOVANNI A.S.D. ENEA M 1953 SM60 4.34.53 4.34.22 6.31 29
442 IACOPONI STEFANO PUROSANGUE ATHLETICS CLUB M 1959 SM55 4.34.56 4.34.25 6.31 51
443 MORICI ALBERTO G.S. BANCARI ROMANI M 1957 SM55 4.35.30 4.34.28 6.32 52
444 STRINATI ALDO S.S. LAZIO ATL. LEGGERA M 1970 SM45 4.36.40 4.34.55 6.33 106
445 MARINELLI MICHELE AMATORI POD. TERNI M 1976 SM35 4.36.47 4.35.56 6.34 41
446 DEL ZINGARO CARLO POD. AVIS FUSIGNANO M 1961 SM50 4.36.51 4.35.42 6.34 85
447 PAGLIONE ENZO CLUB SUPER MARATHON M 1972 SM40 4.37.25 4.36.11 6.35 90
448 CADAU ANTONIO AMATORI POD. TERNI M 1960 SM55 4.38.09 4.36.44 6.36 53
449 ROMANO ROBERTO TRA LE RIGHE M 1972 SM40 4.38.13 4.36.29 6.36 91
450 GENTILUOMO MARIO TRA LE RIGHE M 1970 SM45 4.38.14 4.36.30 6.36 107
451 ARISTEI ROBERTO FORHANS TEAM M 1957 SM55 4.39.08 4.38.13 6.37 54
452 JOE KELBEL FREE RUNNER M 1964 SM50 4.40.17 4.38.40 6.39 86
453 MEISTERLING-RIECKS BERND DEUTSCHER LEICHTATHLETIK M 1958 SM55 4.41.14 4.40.49 6.40 55
454 PAGNANO VINCENZO OLIMPIC MARINA M 1956 SM55 4.42.03 4.41.49 6.41 56
455 PACE FRANCO PODISTICA 2007 M 1967 SM45 4.43.04 4.41.28 6.43 108
456 RICCI ANGELO MICHELE ATL. DON MILANI M 1971 SM40 4.43.25 4.43.00 6.43 92
457 ROCCHETTI DEVIS COLLEMAR-ATHON CLUB M 1974 SM40 4.44.45 4.43.18 6.45 93
458 MARIANECCI FABIO POD. SOLIDARIETA' M 1972 SM40 4.45.14 4.43.26 6.46 94
459 FRANCIOSO GIOVANNI BATTISTA MARATHON MASSAFRA M 1943 SM70 4.46.01 4.45.17 6.47 5
460 GAMBELLI FERDINANDO S.E.F. STAMURA ANCONA M 1950 SM65 4.46.22 4.45.48 6.47 15
461 MALDERA GIUSEPPE A.S.D. ENEA M 1949 SM65 4.47.30 4.46.42 6.49 16
462 GEMMA LORENZO AVIS FORLI' M 1954 SM60 4.48.40 4.47.30 6.51 30
463 PACINOTTI PIERPAOLO LA STANCA VALENZATICO M 1969 SM45 4.48.40 4.46.52 6.51 109
464 ZOLI DANIELE GPA LUGHESINA M 1957 SM55 4.48.40 4.47.29 6.51 57
465 ZIMBARDI MASSIMILIANO NUOVA POD. LATINA M 1970 SM45 4.50.13 4.49.16 6.53 110
466 ONORATI ALDO NUOVA POD. LATINA M 1961 SM50 4.50.50 4.49.56 6.54 87
467 PETRELLA EMILIO 4 STORMO M 1948 SM65 4.51.09 4.49.29 6.54 17
468 CARONTI IVANO RUNFOREVER APRILIA M 1969 SM45 4.51.16 4.49.37 6.54 111
469 BERODE JEROME AMATORI POD. TERNI M 1974 SM40 4.52.16 4.50.39 6.56 95
470 DUMOULIN JEAN LUC AMATORI POD. TERNI M 1973 SM40 4.52.16 4.50.38 6.56 96
471 GIULI ANDREA AVIS TERNI M 1965 SM50 4.53.17 4.52.01 6.57 88
472 SETTONCE STEFANO POD. CARSULAE TR M 1974 SM40 4.53.38 4.52.48 6.58 97
473 CASTELLI LUCIANO ATL. SENIGALLIA M 1951 SM60 4.53.38 4.53.15 6.58 31
474 LUCARINI ROBERTO CAT SPORT ROMA M 1964 SM50 4.54.28 4.53.25 6.59 89
475 GIABBANI ANGIOLO POL. MONTECCHIO 2000 M 1968 SM45 4.54.28 4.52.45 6.59 112
476 VECCHI BRUNO CIRC.RIC. CITTANOVA M 1940 SM70 4.54.41 4.54.33 6.59 6
477 UGOLINI MAURO POD. SOLIDARIETA' M 1974 SM40 4.55.41 4.54.35 7.01 98
478 AURELI MAURO G.S. BANCARI ROMANI M 1964 SM50 4.55.47 4.54.39 7.01 90
479 CALANDRA ANTONIO PICO RUNNERS M 1949 SM65 4.57.12 4.55.52 7.03 18
480 ZERBINATI LIBERO PICO RUNNERS M 1946 SM65 4.57.13 4.55.52 7.03 19
481 MENGHINI STEFANO POL. MONTALTO M 1959 SM55 4.59.26 4.57.46 7.06 58
482 ANCORA VITO PIERO PRO PATRIA CUS MILANO M 1953 SM60 4.59.39 4.58.07 7.06 32
483 GENNARI GIULIANO AMATORI POD. TERNI M 1949 SM65 5.03.18 5.01.31 7.11 20
484 MASCOLO GIOVANNI POD. SANNICANDRO M 1967 SM45 5.04.16 5.03.15 7.13 113
485 ARENA MARCELLO ROMATLETICA FOOTWORKS M 1957 SM55 5.05.59 5.04.15 7.15 59
486 PINO DOMENICO POL. MONTE SAN PIETRO M 1953 SM60 5.07.51 5.06.46 7.18 33
487 GALLO ALDO MARATHON CLUB ARIANO IRPINO M 1958 SM55 5.08.04 5.08.04 7.18 60
488 META ALBERTO ATELLANA RUNNERS AMATORI M 1958 SM55 5.09.13 5.07.50 7.20 61
489 SIMONAZZI MARCO ATL. BANCOLE M 1955 SM60 5.10.07 5.08.44 7.21 34
490 TOSCHI GIANFRANCO A.S.C.D. SILVANO FEDI M 1960 SM55 5.10.07 5.08.44 7.21 62
491 MEZZALIRA VALTER TRA LE RIGHE M 1958 SM55 5.10.50 5.09.07 7.22 63
492 DAL PRA LUCA VENICEMARATHON CLUB M 1970 SM45 5.11.10 5.10.14 7.23 114
493 GINO PAOLO FRANCESCO GS CASTELLANIA GOZZANO M 1961 SM50 5.14.05 5.12.31 7.27 91
494 DELBECQ LUDOVIC AMATORI POD. TERNI M 1981 SM 5.14.09 5.12.51 7.27 24
495 DI GIULIO COSIMO BARLETTA SPORTIVA M 1952 SM60 5.14.14 5.13.12 7.27 35
496 REGNI MIRCO POD. AVIS DERUTA M 1965 SM50 5.15.58 5.14.48 7.29 92
497 BRECCIA DARIO NUOVA POD. LATINA M 1983 SM 5.20.45 5.19.11 7.36 25
498 VERMO GIUSEPPE ATL. CIVITANOVA M 1971 SM40 5.21.56 5.20.33 7.38 99
499 GRAMACCIONI TARCISIO ATL. CIVITANOVA M 1966 SM45 5.21.57 5.20.34 7.38 115
500 TAMBURINI GIOVANNI GOLDEN CLUB RIMINI M 1943 SM70 5.22.23 5.21.29 7.38 7
501 DRAICCHIO FRANCO POD. VALMISA M 1973 SM40 5.22.24 5.20.42 7.38 100
502 GIULIANI PASQUALE G.S. ATL. STRACAGNANO M 1955 SM60 5.22.24 5.20.41 7.38 36
503 FALEO MASSIMO BARLETTA SPORTIVA M 1966 SM45 5.22.24 5.21.32 7.38 116
504 CORSI TOMMASO POD. SOLIDARIETA' M 1965 SM50 5.22.24 5.21.13 7.38 93
505 GIGLIONI LUCA MENS SANA SIENA M 1974 SM40 5.28.34 5.27.25 7.47 101
506 VECERRICA GUIDO ATL. CIVITANOVA M 1952 SM60 5.32.22 5.30.50 7.53 37
507 BUSSA VITO AMICI DELLO SPORT BRIOSCO M 1965 SM50 5.36.14 5.34.27 7.58 94
508 DELL'AIA SALVATORE CLUB SUPER MARATHON M 1950 SM65 5.38.21 5.37.25 8.01 21
509 IADEVAIA GIACOMO POD. FATTORI QUARRATA M 1963 SM50 5.38.21 5.37.25 8.01 95
510 MANCINI GABRIELE UISP FORLI'-CESENA M 1957 SM55 5.40.22 5.38.33 8.04 64
511 POLIDORI ALFIO RICCIONE CORRE M 1956 SM55 5.41.42 5.40.07 8.06 65
512 BIAGINI ALFIO GOLDEN CLUB RIMINI M 1951 SM60 5.42.00 5.40.29 8.06 38
513 BOBBONI LUCA ALTO LAZIO M 1969 SM45 5.44.01 5.43.08 8.09 117
514 DI GREGORIO ENRICO NUOVA POD. LATINA M 1960 SM55 5.44.49 5.43.14 8.10 66
515 DE ANGELIS FABRIZIO POD. SOLIDARIETA' M 1971 SM40 5.45.15 5.43.55 8.11 102
516 COPPE STEPHANE USBW M 1954 SM60 5.48.59 5.47.24 8.16 39
517 PASTORELLO GIANGUIDO G.P. VIRGILIANO M 1951 SM60 5.52.33 5.51.03 8.21 40
518 BELOTTI GASPARE ATHLETIC VENTO MEDICEO M 1960 SM55 5.58.21 5.57.42 8.30 67
519 DI PASTENA VINCENZO POD. TIBURTINA M 1958 SM55 6.00.00 5.59.07 8.32 68
Ordine d'arrivo femminile - km 42,195
Pos Atleta Squadra Sesso ANNO Cat. Tempo RealTime Media P.Cat.
1 VRAJIC MARIJA AK MAKSIMIR F 1976 M 2.55.21 2.55.21 4.09 0
2 SALVATORI PAOLA U.S. ROMA 83 F 1972 M 2.57.53 2.57.03 4.13 0
3 CARLIN MONICA G.S. VALSUGANA TRENTINO F 1971 M 3.00.41 3.00.33 4.17 0
4 TIRELLI CECILIA RUNNING EVOLUTION F 1980 L 3.05.24 3.05.20 4.24 1
5 CARDUCCI SARA AVIS ASCOLI MARATHON F 1982 L 3.06.38 3.06.00 4.25 2
6 POESINI FEDERICA MARATHON CLUB C. DI CASTELLO F 1976 M 3.09.35 3.09.32 4.30 1
7 MAYONNADE CHRISTINE LANGONNAIS ATHLETISME F 1973 M 3.11.28 3.11.28 4.32 2
8 IMBUCATURA CRISTINA MARILENA RUN FOR FUN F 1972 M 3.19.42 3.19.35 4.44 3
9 DEL SINDACO ELIDE TRIBU' FRENTANA F 1980 L 3.20.26 3.20.24 4.45 3
10 PIASTRA LORENA CDP ATLETICA PERUGIA F 1977 M 3.24.59 3.24.47 4.52 4
11 JEDRUSIK MAGDALENA AGATA UISP ROMA F 1978 M 3.25.49 3.25.42 4.53 5
12 TAPPATA' DENISE POL. ACLI MACERATA F 1980 L 3.27.41 3.27.22 4.55 4
13 MARIANI LAURA EASY RUNNER F 1979 M 3.29.50 3.29.32 4.58 6
14 MODIGNANI ALICE ATL. PALZOLA F 1977 M 3.30.34 3.29.53 4.59 7
15 CABERLON ERIKA POL. VIRTUS SPOLETO F 1981 L 3.31.31 3.31.01 5.01 5
16 QUATTROCCHI ORIANA FREE RUNNERS LARIANO F 1983 L 3.33.07 3.32.57 5.03 6
17 DE IACO MONICA AMATORI POD. TERNI F 1966 N 3.33.58 3.32.21 5.04 1
18 VICHI KATIUSCIA POD. AVIS DERUTA F 1974 M 3.35.52 3.35.20 5.07 8
19 LIBERATI ALESSANDRA POD. SAN SALVO F 1977 M 3.37.08 3.37.06 5.09 9
20 MARIANI JULIA POD. SAN SALVO F 1988 L 3.37.39 3.37.30 5.10 7
21 VEERLE BEERNAERT AMATORI POD. TERNI F 1969 N 3.38.45 3.38.17 5.11 2
22 ZINFOLINO MICHELA CENTRO FITNESS MONTELLO F 1974 M 3.39.48 3.39.38 5.13 10
23 STOLICNA ZUZANA SLOVAKIA F 1968 N 3.42.22 3.42.00 5.16 3
24 LOSURDO PASQUALINA BISCEGLIE RUNNING F 1984 L 3.42.34 3.42.19 5.17 8
25 DI SALVATORE ANNA AMATORI VILLA PAMPHILI F 1965 N 3.42.34 3.42.04 5.17 4
26 TRISOLINO ADDOLORATA TEAM FRANCAVILLA F 1975 M 3.43.07 3.42.49 5.17 11
27 SPESCHA LAURA POD. SOLIDARIETA' F 1968 N 3.43.13 3.42.18 5.17 5
28 SPANO VALENTINA ATL. GROSSETO F 1977 M 3.44.16 3.43.56 5.19 12
29 DIAMANTI DANIELA G.S. LE PANCHE CASTELQUARTO F 1962 N 3.44.26 3.44.09 5.19 6
30 ZNIDAR TJASA AMATORI POD. TERNI F 1980 L 3.44.51 3.44.36 5.20 9
31 SPATARO CINZIA AVIS LATTANZI F 1962 N 3.46.47 3.45.53 5.23 7
32 FIORE KATIA RUN FOR LIFE F 1975 M 3.48.18 3.47.21 5.25 13
33 MELLA ELEONORA POD. SOLIDARIETA' F 1975 M 3.48.28 3.47.30 5.25 14
34 PULVIRENTI ROSARIA G.S. BANCARI ROMANI F 1966 N 3.50.17 3.49.30 5.28 8
35 VERSOLATO BARBARA BREMA RUNNING TEAM F 1970 M 3.51.28 3.51.07 5.29 15
36 LEONE ROSSELLA POD. LUCERA F 1980 L 3.51.51 3.51.50 5.30 10
37 LA TORRE ANGELA G.S. MATERA F 1974 M 3.52.27 3.50.45 5.31 16
38 SERGOLA MARIARITA AMATORI POD. TERNI F 1960 N 3.52.32 3.51.57 5.31 9
39 CARISSIMO DANIELA POD. SAN SALVO F 1969 N 3.52.43 3.52.29 5.31 10
40 ARIAS HAYDEE TAMARA POD. SOLIDARIETA' F 1982 L 3.53.17 3.52.23 5.32 11
41 CORPETTI CLAUDIA AMATORI POD. TERNI F 1975 M 3.53.38 3.52.52 5.32 17
42 PACHECO LEITE CAMILA AMATORI VILLA PAMPHILI F 1976 M 3.54.11 3.53.20 5.33 18
43 SALICANDRO MARGHERITA TEAM FRANCAVILLA F 1967 N 3.56.02 3.55.41 5.36 11
44 BARTOLUCCI GERMANA POD. SOLIDARIETA' F 1972 M 3.56.02 3.55.12 5.36 19
45 SPORTELLI TIZIANA G.S. LAMONE RUSSI F 1967 N 3.57.37 3.57.18 5.38 12
46 VANNUCCI CLAUDIA G.P.A. SAN MARINO F 1964 N 3.58.28 3.58.27 5.39 13
47 PICIUCCHI SARA AVIS FORLI' F 1978 M 3.59.08 3.57.28 5.40 20
48 TAMBURINI ENRICA ATLETIC TEAM TAVERNA F 1981 L 3.59.41 3.59.01 5.41 12
49 TURCHI ROSSANA POL. S. ANDREA - AMICI DI MARIO F 1971 M 3.59.42 3.58.09 5.41 21
50 PERRONE CHIARA POD. AVIS DERUTA F 1981 L 3.59.51 3.59.20 5.41 13
51 SETTE FEDERICA ATL. ABRUZZO L'AQUILA F 1979 M 4.01.26 4.00.58 5.43 22
52 FEDERICI FRANCESCA AMATORI POD. TERNI F 1979 M 4.02.01 4.01.29 5.44 23
53 PERILLI LUCIA POD. SOLIDARIETA' F 1972 M 4.02.59 4.02.04 5.46 24
54 BARASSI CHIARA HAPPY RUNNER CLUB F 1990 L 4.05.15 4.04.37 5.49 14
55 DI FELICE ANNA MARIA G.S.D. LITAL F 1957 O 4.06.45 4.06.23 5.51 1
56 FOSSATELLI ELISABETTA AMATORI POD. TERNI F 1958 O 4.07.27 4.06.35 5.52 2
57 LONOCE LUCIA TEAM FRANCAVILLA F 1973 M 4.08.42 4.08.21 5.54 25
58 TURCO MARIA LAURA G.S. BANCARI ROMANI F 1962 N 4.10.47 4.09.49 5.57 14
59 ANICETI MICHELA POD. FATTORI QUARRATA F 1965 N 4.11.02 4.09.29 5.57 15
60 CANAVERO SILVIA INES G.P. GORGONZOLA '88 F 1980 L 4.13.07 4.12.18 6.00 15
61 BAGLI LAURA A.R.C.U.S. RIMINI F 1967 N 4.13.27 4.12.42 6.00 16
62 ALFONSI ROBERTA RUNNERS CIAMPINO F 1980 L 4.14.15 4.12.46 6.02 16
63 CHINNI LUCIA ATL. OSTIA F 1959 O 4.14.17 4.13.59 6.02 3
64 SEZZI GIORGIA NUOVA POD. LATINA F 1973 M 4.14.18 4.13.21 6.02 26
65 VENTOSILLA SHAW EDITH ROSARIO CAT SPORT ROMA F 1959 O 4.14.33 4.13.46 6.02 4
66 MAGNAGO LISA RUN FOR FUN F 1976 M 4.15.05 4.14.51 6.03 27
67 DEL BIANCO SILVIA ATL. AVIS PERUGIA F 1965 N 4.16.22 4.15.45 6.05 17
68 WU AMANDA HSIN-WEN OTC COMO F 1974 M 4.17.41 4.17.12 6.06 28
69 CANESTRARI DANIELA UISP PESARO F 1975 M 4.18.34 4.17.50 6.08 29
70 BACCHIOCCHI DANIELA CALCINELLI RUN F 1969 N 4.18.35 4.17.51 6.08 18
71 BIANCHETTI MARIA POD. SOLIDARIETA' F 1969 N 4.18.38 4.17.17 6.08 19
72 MARTONI CATERINA AMATORI POD. TERNI F 1984 L 4.18.51 4.17.59 6.08 17
73 STERPARELLI SILVIA MARATHON CLUB C. DI CASTELLO F 1979 M 4.19.57 4.18.30 6.10 30
74 FORCUTI GIULIA CAT SPORT ROMA F 1972 M 4.20.38 4.19.09 6.11 31
75 CENNI PAOLA G.S.D. LITAL F 1947 O 4.22.19 4.21.39 6.13 5
76 PANE IVANA ATL. PEGASO F 1972 M 4.22.32 4.21.20 6.13 32
77 CANNATARO FRANCESCA CAI G.P. PISTOIA F 1979 M 4.24.55 4.23.16 6.17 33
78 BERTOZZI LUCIA ATL. CESENATICO F 1960 N 4.26.04 4.25.43 6.18 20
79 CREMISI IOLANDA LBM SPORT TEAM F 1968 N 4.26.26 4.26.06 6.19 21
80 CROCCO SILVIA EASY RUNNER F 1959 O 4.26.46 4.25.51 6.19 6
81 DI BENEDETTO MARILENA G.S. BANCARI ROMANI F 1960 N 4.27.37 4.26.39 6.21 22
82 TAYLOR KATE 100 MARATHON CLUB F 1961 N 4.28.06 4.26.58 6.21 23
83 CASELLI GIANNA G.P. I CAGNON F 1969 N 4.29.06 4.27.57 6.23 24
84 VAN PARYS ANNI AMATORI POD. TERNI F 1980 L 4.29.17 4.28.00 6.23 18
85 PAGANUCCI SARA G.S. ORECCHIELLA GARFAGNANA F 1977 M 4.29.18 4.28.25 6.23 34
86 VACCARINI PATRIZIA AMATORI POD. TERNI F 1965 N 4.30.38 4.30.03 6.25 25
87 DE ANGELIS PATRIZIA POD. SOLIDARIETA' F 1964 N 4.32.22 4.31.15 6.27 26
88 CAIOTTI EGLE MARATHON CLUB C. DI CASTELLO F 1951 O 4.32.44 4.31.34 6.28 7
89 LAVALLE MARIA GRAZIA ROMA ECO MARATONA F 1967 N 4.34.19 4.33.08 6.30 27
90 FALCHETTI ANNA MARIA CDP ATLETICA PERUGIA F 1966 N 4.34.38 4.33.31 6.31 28
91 BURCHIANTI GIULIA G.S. BANCARI ROMANI F 1985 L 4.35.30 4.34.27 6.32 19
92 SCALA ANTONIETTA POD. SOLIDARIETA' F 1972 M 4.35.49 4.35.09 6.32 35
93 LENTO FRANCESCA S.S. LAZIO ATL. LEGGERA F 1982 L 4.36.35 4.34.49 6.33 20
94 RANZUGLIA GIULIA UISP MACERATA F 1978 M 4.37.27 4.36.17 6.35 36
95 MORETTI ADONELLA A.S.P.A. BASTIA U. PG F 1959 O 4.40.53 4.40.11 6.39 8
96 RIECKS ERIKA DEUTSCHER LEICHTATHLETIK F 1955 O 4.41.14 4.40.50 6.40 9
97 TONI CRISTINA NUOVA POD. LATINA F 1965 N 4.41.34 4.39.59 6.40 29
98 VERECKT MARJORIE AMATORI POD. TERNI F 1981 L 4.42.18 4.41.01 6.41 21
99 LICHERI ANTONELLA CAT SPORT ROMA F 1965 N 4.42.42 4.41.33 6.42 30
100 LOMBARDI TEA GOLDEN CLUB RIMINI F 1964 N 4.44.22 4.44.21 6.44 31
101 ZANABONI MARIA RITA AMICI DELLO SPORT BRIOSCO F 1956 O 4.45.58 4.44.47 6.47 10
102 MANCINELLI LAURA FORUM SPORT CENTER F 1969 N 4.48.40 4.48.00 6.51 32
103 AVOLIO NUNZIA RUNNING EVOLUTION F 1981 L 4.48.40 4.47.12 6.51 22
104 FRANCESCHINI CHIARA G.S. BANCARI ROMANI F 1975 M 4.48.40 4.47.09 6.51 37
105 PAMPALONI BARBARA G.S. BELLAVISTA F 1962 N 4.49.35 4.49.17 6.52 33
106 SQUITIERI GIOVANNA RUNFOREVER APRILIA F 1968 N 4.51.16 4.49.38 6.54 34
107 FILIPPONE ROSSANA TRAIL DEI DUE LAGHI F 1966 N 4.53.38 4.52.35 6.58 35
108 CAIMMI STEFANIA UISP FORLI'-CESENA F 1972 M 4.54.28 4.53.36 6.59 38
109 CELIA MAGNO MARIA UISP ROMA F 1969 N 4.55.34 4.54.05 7.00 36
110 COLUMPSI TERESA A.S. PEGASO F 1969 N 4.56.16 4.55.50 7.01 37
111 STEFANINI ANNA RITA ATL. AMATORI OSIMO BRACACCINI F 1957 O 4.56.46 4.56.17 7.02 11
112 SANFILIPPO PAOLA POD. MARE DI ROMA F 1965 N 4.56.50 4.55.45 7.02 38
113 RAZZOLINI ILARIA PFIZER ITALIA RUNNING TEAM F 1968 N 4.58.23 4.56.45 7.04 39
114 TRANQUILLI GIOVANNA NUOVA POD. LATINA F 1955 O 4.58.24 4.56.51 7.04 12
115 PANDOLFI CHIARA PFIZER ITALIA RUNNING TEAM F 1980 L 4.58.24 4.56.47 7.04 23
116 SILVERIO STEFANIA AMATORI POD. TERNI F 1973 M 5.03.18 5.02.31 7.11 39
117 AGABITI CAROLINA AMATORI POD. TERNI F 1963 N 5.03.18 5.01.31 7.11 40
118 NARDELLA FILOMENA POD. SANNICANDRO F 1967 N 5.04.16 5.03.15 7.13 41
119 DI PIETRANTONIO CRISTIANA CLUB SUPER MARATHON F 1965 N 5.06.00 5.04.17 7.15 42
120 FAILLI LAURA TORRE DEL MANGIA SI F 1963 N 5.07.17 5.05.47 7.17 43
121 CIOCCHETTI SILVANA ASTRA ROMA F 1949 O 5.07.42 5.07.16 7.18 13
122 WETSCHER GABI AMATORI POD. TERNI F 1965 N 5.08.04 5.06.26 7.18 44
123 PETRELLI MARCELLA POD. OSTIA F 1961 N 5.12.08 5.11.23 7.24 45
124 VECCHI GRAZIA POD. OSTIA F 1962 N 5.12.08 5.11.23 7.24 46
125 PATRUNO NUNZIA BARLETTA SPORTIVA F 1962 N 5.14.14 5.13.15 7.27 47
126 INTILLA ANNA MARIA MARATHON CLUB LIVIGNO F 1957 O 5.15.39 5.14.17 7.29 14
127 CADORIN EDI ATL. MIRAFIORI F 1954 O 5.27.19 5.26.49 7.45 15
128 FARES SIMONA LIBERTAS OSTIA RUNNER AVIS F 1965 N 5.34.23 5.33.17 7.56 48
129 INTROCASO ISABELLA AMICI DELLO SPORT BRIOSCO F 1976 M 5.36.14 5.34.26 7.58 40
130 FRANCESCHELLI ELISABETTA POL. U.S. NAVE F 1963 N 5.38.21 5.36.42 8.01 49
131 HANSQUINE MURIEL FED. BELGIUM F 1957 O 5.48.59 5.47.23 8.16 16
132 BORGONCINO MARIA CRISTINA ATHLETIC VENTO MEDICEO F 1963 N 5.58.21 5.57.42 8.30 50
133 MOCELLIN MARINA G.S. GABBI F 1951 O 6.00.00 5.58.24 8.32 17
134 GAVAZZENI GIOV.CARLA CLUB PANTERA ROSA F 1954 O 6.00.00 5.58.29 8.32 18

 

---------------

---------------

------------------------------

------------------------------